Time;durP1;ratioP1;P1;durP2;ratioP2;P2;SDS_P1;SDS_P2;PMS_P1;PMS_P2;Temp;Humidity;BMP_temperature;BMP_pressure;BME280_temperature;BME280_humidity;BME280_pressure;Samples;Min_cycle;Max_cycle;Signal;HPM_P1;HPM_P2
2023/11/07 00:00:25;;;;;;;1.80;0.90;;;;;;;10.67;68.23;98197.04;108724;1260;60014;-87
2023/11/07 00:02:53;;;;;;;1.60;0.90;;;;;;;10.65;68.42;98197.52;108814;1260;60249;-85
2023/11/07 00:05:21;;;;;;;1.70;1.00;;;;;;;10.64;68.40;98202.98;108808;1260;74040;-85
2023/11/07 00:07:48;;;;;;;1.10;0.80;;;;;;;10.62;68.56;98203.14;108771;1260;73485;-85
2023/11/07 00:10:15;;;;;;;1.70;1.00;;;;;;;10.60;68.64;98204.84;108636;1260;71756;-86
2023/11/07 00:12:43;;;;;;;0.90;0.80;;;;;;;10.59;68.57;98204.98;108715;1260;59711;-86
2023/11/07 00:15:10;;;;;;;1.50;1.00;;;;;;;10.57;68.76;98208.70;108730;1260;60177;-85
2023/11/07 00:17:37;;;;;;;2.70;1.30;;;;;;;10.54;68.97;98208.17;108691;1260;72823;-86
2023/11/07 00:20:04;;;;;;;2.00;0.90;;;;;;;10.51;68.81;98210.75;108720;1261;73172;-86
2023/11/07 00:22:33;;;;;;;1.30;1.10;;;;;;;10.48;69.11;98211.10;108694;1260;72634;-86
2023/11/07 00:25:01;;;;;;;2.00;1.00;;;;;;;10.44;69.18;98214.41;108769;1261;62134;-86
2023/11/07 00:27:30;;;;;;;1.00;0.90;;;;;;;10.40;69.30;98214.19;108646;1262;60372;-86
2023/11/07 00:29:58;;;;;;;3.40;1.00;;;;;;;10.36;69.50;98215.05;108710;1261;73733;-86
2023/11/07 00:32:25;;;;;;;1.60;1.00;;;;;;;10.30;69.66;98218.99;108627;1260;74089;-86
2023/11/07 00:34:52;;;;;;;3.80;0.90;;;;;;;10.25;70.02;98218.46;108705;1261;72513;-86
2023/11/07 00:37:19;;;;;;;3.80;1.50;;;;;;;10.20;70.16;98224.89;108689;1262;62086;-86
2023/11/07 00:39:46;;;;;;;2.20;1.20;;;;;;;10.15;70.37;98224.02;108910;1262;60448;-85
2023/11/07 00:42:13;;;;;;;1.90;1.30;;;;;;;10.10;70.32;98220.58;108666;1262;71797;-86
2023/11/07 00:44:40;;;;;;;2.30;1.20;;;;;;;10.05;70.59;98222.70;108588;1262;73062;-86
2023/11/07 00:47:08;;;;;;;3.10;1.20;;;;;;;9.99;70.78;98225.63;108551;1261;70908;-86
2023/11/07 00:49:35;;;;;;;1.80;1.40;;;;;;;9.93;70.75;98223.90;108709;1260;60850;-86
2023/11/07 00:52:02;;;;;;;2.30;1.50;;;;;;;9.86;71.03;98225.11;108673;1261;59705;-86
2023/11/07 00:54:29;;;;;;;2.10;1.50;;;;;;;9.79;71.28;98227.95;108706;1261;72634;-86
2023/11/07 00:56:56;;;;;;;2.10;1.70;;;;;;;9.70;71.33;98231.00;108609;1262;73075;-86
2023/11/07 00:59:23;;;;;;;2.10;1.60;;;;;;;9.63;71.67;98233.16;108680;1262;72637;-86
2023/11/07 01:01:50;;;;;;;3.20;1.70;;;;;;;9.54;71.78;98231.60;108615;1262;61663;-87
2023/11/07 01:04:17;;;;;;;2.20;1.50;;;;;;;9.46;72.10;98233.55;108690;1261;60750;-86
2023/11/07 01:06:44;;;;;;;2.00;1.40;;;;;;;9.38;72.45;98231.58;108550;1262;72346;-87
2023/11/07 01:09:12;;;;;;;3.50;2.00;;;;;;;9.31;72.75;98230.30;108433;1262;75137;-86
2023/11/07 01:11:39;;;;;;;3.30;1.70;;;;;;;9.22;73.04;98228.69;108651;1262;72583;-86
2023/11/07 01:14:07;;;;;;;2.10;1.60;;;;;;;9.17;73.24;98231.95;108908;1260;61047;-86
2023/11/07 01:16:34;;;;;;;3.00;1.20;;;;;;;9.10;73.63;98228.98;108904;1261;60068;-86
2023/11/07 01:19:01;;;;;;;3.00;1.50;;;;;;;9.04;74.19;98231.48;108877;1261;73167;-85
2023/11/07 01:21:31;;;;;;;2.30;1.30;;;;;;;8.98;74.37;98224.05;108908;1261;74002;-84
2023/11/07 01:23:58;;;;;;;2.20;1.30;;;;;;;8.92;74.63;98218.71;108813;1262;72658;-86
2023/11/07 01:26:25;;;;;;;3.40;1.60;;;;;;;8.86;74.84;98215.18;108759;1262;60689;-85
2023/11/07 01:28:52;;;;;;;2.50;1.50;;;;;;;8.80;75.22;98216.46;108861;1262;60265;-84
2023/11/07 01:31:22;;;;;;;3.90;1.50;;;;;;;8.75;75.49;98218.77;108834;1261;73309;-85
2023/11/07 01:33:49;;;;;;;3.00;0.70;;;;;;;8.70;76.39;98218.38;108711;1262;72898;-85
2023/11/07 01:36:16;;;;;;;1.60;0.80;;;;;;;8.69;76.67;98216.31;108664;1262;72615;-85
2023/11/07 01:38:43;;;;;;;2.60;1.10;;;;;;;8.71;76.85;98217.92;108694;1262;61939;-85
2023/11/07 01:41:10;;;;;;;2.60;1.10;;;;;;;8.75;76.74;98218.77;108831;1262;59081;-86
2023/11/07 01:43:38;;;;;;;3.00;1.20;;;;;;;8.79;76.87;98219.36;108857;1262;71473;-84
2023/11/07 01:46:05;;;;;;;1.90;0.90;;;;;;;8.87;76.82;98221.92;108869;1262;73161;-85
2023/11/07 01:48:32;;;;;;;1.80;1.00;;;;;;;8.94;76.77;98221.61;108781;1262;72276;-87
2023/11/07 01:50:59;;;;;;;2.70;0.90;;;;;;;9.03;76.46;98226.38;108726;1262;62308;-85
2023/11/07 01:53:27;;;;;;;3.30;1.20;;;;;;;9.13;76.29;98225.93;108692;1263;59100;-85
2023/11/07 01:55:54;;;;;;;3.60;1.50;;;;;;;9.21;75.93;98228.43;108818;1262;72664;-85
2023/11/07 01:58:21;;;;;;;1.70;1.10;;;;;;;9.28;75.67;98222.80;108817;1262;74086;-85
2023/11/07 02:00:49;;;;;;;1.90;0.80;;;;;;;9.32;75.40;98225.70;108760;1261;72412;-87
2023/11/07 02:03:16;;;;;;;1.40;0.90;;;;;;;9.36;75.19;98218.85;108798;1261;61597;-86
2023/11/07 02:05:43;;;;;;;0.90;0.80;;;;;;;9.38;75.07;98218.51;108716;1261;59549;-87
2023/11/07 02:08:10;;;;;;;1.90;1.10;;;;;;;9.42;75.01;98223.30;108665;1261;73732;-87
2023/11/07 02:10:37;;;;;;;1.40;0.80;;;;;;;9.43;75.16;98227.17;108605;1262;74347;-86
2023/11/07 02:13:04;;;;;;;2.30;0.80;;;;;;;9.45;75.08;98228.49;108601;1261;76219;-86
2023/11/07 02:15:34;;;;;;;2.30;0.90;;;;;;;9.45;75.02;98220.09;108608;1263;62870;-86
2023/11/07 02:18:01;;;;;;;2.80;0.80;;;;;;;9.45;74.98;98221.46;108800;1260;59308;-85
2023/11/07 02:20:30;;;;;;;3.90;1.30;;;;;;;9.45;74.88;98220.26;108727;1261;73434;-86
2023/11/07 02:23:24;;;;;;;1.50;0.80;;;;;;;9.44;74.56;98226.39;108700;1261;73933;-86
2023/11/07 02:25:51;;;;;;;3.90;1.50;;;;;;;9.41;74.33;98229.40;108632;1262;72561;-86
2023/11/07 02:28:19;;;;;;;2.80;1.20;;;;;;;9.37;74.05;98224.87;108683;1262;60716;-87
2023/11/07 02:30:46;;;;;;;2.10;1.30;;;;;;;9.32;74.28;98223.21;108681;1261;60349;-86
2023/11/07 02:33:14;;;;;;;3.70;1.20;;;;;;;9.28;74.40;98229.23;108648;1261;73594;-85
2023/11/07 02:35:41;;;;;;;2.30;1.20;;;;;;;9.23;74.67;98229.91;108652;1260;73476;-86
2023/11/07 02:38:10;;;;;;;2.60;1.20;;;;;;;9.17;74.99;98228.30;108621;1260;71714;-85
2023/11/07 02:40:38;;;;;;;3.00;1.00;;;;;;;9.13;74.77;98227.19;108580;1262;60805;-86
2023/11/07 02:43:05;;;;;;;2.00;1.10;;;;;;;9.08;75.20;98222.70;108718;1262;60087;-86
2023/11/07 02:45:36;;;;;;;1.20;0.70;;;;;;;9.03;75.56;98222.80;108562;1260;72795;-87
2023/11/07 02:48:04;;;;;;;4.10;1.20;;;;;;;8.98;75.68;98221.33;108630;1262;73843;-86
2023/11/07 02:50:31;;;;;;;2.90;1.40;;;;;;;8.94;76.10;98223.56;108490;1261;72585;-87
2023/11/07 02:52:58;;;;;;;2.30;1.30;;;;;;;8.91;76.25;98218.96;108585;1262;61688;-85
2023/11/07 02:55:25;;;;;;;1.90;1.70;;;;;;;8.88;76.84;98221.65;108658;1261;58956;-86
2023/11/07 02:57:52;;;;;;;3.30;1.40;;;;;;;8.86;76.86;98217.50;108701;1260;73942;-85
2023/11/07 03:00:19;;;;;;;1.60;1.00;;;;;;;8.83;77.64;98213.60;108582;1260;74917;-86
2023/11/07 03:02:48;;;;;;;2.90;1.30;;;;;;;8.82;78.34;98210.06;108701;1260;72638;-86
2023/11/07 03:05:16;;;;;;;2.40;1.30;;;;;;;8.84;79.05;98206.59;108599;1262;60971;-86
2023/11/07 03:07:43;;;;;;;1.30;1.20;;;;;;;8.86;79.92;98207.13;108664;1260;61362;-86
2023/11/07 03:10:10;;;;;;;2.30;1.30;;;;;;;8.90;79.88;98207.81;108652;1261;71954;-86
2023/11/07 03:12:38;;;;;;;2.40;1.50;;;;;;;8.94;80.51;98207.34;108607;1260;74579;-86
2023/11/07 03:15:05;;;;;;;2.90;1.70;;;;;;;8.99;80.65;98205.58;108660;1260;71400;-85
2023/11/07 03:17:33;;;;;;;3.60;1.50;;;;;;;9.03;80.79;98202.25;108668;1261;61732;-86
2023/11/07 03:20:00;;;;;;;3.20;1.60;;;;;;;9.09;81.01;98203.88;108677;1260;59763;-87
2023/11/07 03:22:28;;;;;;;2.80;1.80;;;;;;;9.14;80.94;98199.76;108622;1261;73769;-86
2023/11/07 03:24:55;;;;;;;5.50;1.40;;;;;;;9.18;80.43;98201.08;108530;1261;72953;-86
2023/11/07 03:27:22;;;;;;;3.20;1.40;;;;;;;9.21;80.18;98201.28;108556;1261;72595;-86
2023/11/07 03:29:50;;;;;;;4.10;1.60;;;;;;;9.23;80.24;98203.30;108673;1260;62011;-86
2023/11/07 03:32:17;;;;;;;2.70;1.60;;;;;;;9.24;80.10;98201.64;108910;1261;59158;-86
2023/11/07 03:34:45;;;;;;;2.20;1.20;;;;;;;9.24;80.14;98204.64;108861;1261;72839;-87
2023/11/07 03:37:12;;;;;;;3.70;1.80;;;;;;;9.24;80.05;98202.67;108681;1260;73153;-86
2023/11/07 03:39:39;;;;;;;3.00;1.60;;;;;;;9.23;80.02;98202.20;108484;1260;71642;-86
2023/11/07 03:42:06;;;;;;;3.40;1.90;;;;;;;9.23;80.28;98205.23;108665;1260;60297;-86
2023/11/07 03:44:34;;;;;;;5.20;1.90;;;;;;;9.23;80.69;98203.82;108648;1262;60752;-86
2023/11/07 03:47:03;;;;;;;5.80;1.90;;;;;;;9.24;80.96;98206.05;108746;1261;74649;-84
2023/11/07 03:49:31;;;;;;;5.50;1.40;;;;;;;9.26;81.56;98200.05;108710;1265;72797;-86
2023/11/07 03:51:58;;;;;;;2.70;1.80;;;;;;;9.30;81.91;98204.60;108709;1260;71684;-87
2023/11/07 03:54:25;;;;;;;1.20;1.00;;;;;;;9.35;82.18;98201.93;108669;1260;60455;-85
2023/11/07 03:56:52;;;;;;;3.40;1.50;;;;;;;9.42;82.32;98193.81;108679;1262;58981;-87
2023/11/07 03:59:19;;;;;;;2.60;1.20;;;;;;;9.51;82.22;98195.34;108675;1260;73437;-87
2023/11/07 04:01:46;;;;;;;2.50;1.30;;;;;;;9.59;82.07;98185.66;108681;1260;73721;-87
2023/11/07 04:04:13;;;;;;;2.80;1.40;;;;;;;9.66;81.78;98187.66;108690;1260;71788;-87
2023/11/07 04:06:40;;;;;;;2.20;1.00;;;;;;;9.73;81.44;98187.73;108631;1260;60908;-86
2023/11/07 04:09:07;;;;;;;4.40;1.80;;;;;;;9.82;81.18;98189.66;108719;1260;61000;-86
2023/11/07 04:11:34;;;;;;;5.50;1.30;;;;;;;9.88;80.76;98180.98;108645;1262;72748;-87
2023/11/07 04:14:03;;;;;;;3.70;1.60;;;;;;;9.94;80.65;98180.77;108652;1262;74554;-86
2023/11/07 04:16:31;;;;;;;1.00;0.70;;;;;;;9.99;80.55;98178.60;108701;1261;71372;-87
2023/11/07 04:18:59;;;;;;;2.90;1.00;;;;;;;10.04;80.60;98176.31;108666;1260;60946;-86
2023/11/07 04:21:27;;;;;;;2.30;1.00;;;;;;;10.09;80.23;98171.11;108650;1260;59074;-86
2023/11/07 04:23:54;;;;;;;3.70;1.20;;;;;;;10.14;79.97;98169.50;108725;1261;73840;-86
2023/11/07 04:26:21;;;;;;;5.00;1.30;;;;;;;10.18;79.91;98176.19;108719;1260;72970;-85
2023/11/07 04:28:48;;;;;;;3.30;1.30;;;;;;;10.20;79.74;98177.30;108766;1261;71561;-86
2023/11/07 04:31:15;;;;;;;3.80;1.20;;;;;;;10.21;79.84;98178.47;108823;1260;62168;-85
2023/11/07 04:33:42;;;;;;;2.00;1.40;;;;;;;10.22;79.81;98179.64;108712;1261;59427;-86
2023/11/07 04:36:09;;;;;;;6.20;1.40;;;;;;;10.23;79.25;98187.12;108571;1267;72825;-86
2023/11/07 04:38:39;;;;;;;2.60;1.20;;;;;;;10.21;78.35;98192.81;108647;1262;72763;-86
2023/11/07 04:41:06;;;;;;;1.90;1.40;;;;;;;10.15;77.53;98193.79;108614;1261;71362;-86
2023/11/07 04:43:35;;;;;;;2.00;1.20;;;;;;;10.06;76.76;98193.67;108654;1260;62174;-86
2023/11/07 04:46:03;;;;;;;1.50;1.10;;;;;;;9.96;76.20;98199.22;108669;1265;59617;-86
2023/11/07 04:48:32;;;;;;;2.00;1.40;;;;;;;9.84;75.91;98195.21;108637;1261;73644;-87
2023/11/07 04:51:00;;;;;;;3.90;1.50;;;;;;;9.71;75.43;98207.89;108728;1260;73376;-86
2023/11/07 04:53:28;;;;;;;7.70;4.00;;;;;;;9.57;74.97;98206.52;108704;1260;71630;-86
2023/11/07 04:55:55;;;;;;;6.40;5.70;;;;;;;9.43;75.57;98203.00;108663;1262;61814;-86
2023/11/07 04:58:24;;;;;;;8.50;7.70;;;;;;;9.30;76.33;98204.25;108676;1261;60431;-87
2023/11/07 05:00:52;;;;;;;11.40;7.20;;;;;;;9.19;76.37;98215.52;108714;1260;74110;-86
2023/11/07 05:03:21;;;;;;;7.20;5.50;;;;;;;9.08;76.80;98212.55;108672;1264;73722;-86
2023/11/07 05:06:01;;;;;;;5.40;4.80;;;;;;;8.97;76.83;98211.61;108687;1260;71450;-85
2023/11/07 05:08:30;;;;;;;3.80;2.90;;;;;;;8.86;77.40;98208.92;108573;1261;61878;-86
2023/11/07 05:10:57;;;;;;;5.20;2.40;;;;;;;8.78;78.36;98210.73;108718;1260;60039;-86
2023/11/07 05:13:24;;;;;;;6.90;3.10;;;;;;;8.70;78.61;98215.69;108697;1260;73493;-86
2023/11/07 05:15:53;;;;;;;4.50;2.70;;;;;;;8.63;78.83;98217.92;108732;1260;75485;-86
2023/11/07 05:18:21;;;;;;;4.50;2.10;;;;;;;8.56;78.95;98224.07;108618;1261;73868;-86
2023/11/07 05:20:49;;;;;;;4.20;2.00;;;;;;;8.49;79.04;98225.94;108668;1262;59928;-85
2023/11/07 05:23:19;;;;;;;2.50;1.60;;;;;;;8.42;79.46;98224.07;108705;1262;61429;-86
2023/11/07 05:25:46;;;;;;;3.10;1.70;;;;;;;8.36;79.61;98221.58;108655;1262;72081;-85
2023/11/07 05:28:13;;;;;;;3.90;2.50;;;;;;;8.29;79.71;98220.36;108690;1260;73564;-86
2023/11/07 05:30:40;;;;;;;4.60;2.60;;;;;;;8.23;79.56;98217.70;108688;1260;72870;-85
2023/11/07 05:33:07;;;;;;;7.90;2.60;;;;;;;8.17;80.08;98217.75;108696;1260;60316;-85
2023/11/07 05:35:34;;;;;;;3.70;2.40;;;;;;;8.10;80.39;98216.75;108725;1262;59018;-85
2023/11/07 05:38:02;;;;;;;8.70;2.60;;;;;;;8.05;80.86;98218.67;108799;1262;72583;-87
2023/11/07 05:40:29;;;;;;;4.80;2.90;;;;;;;8.00;81.04;98225.21;108946;1262;74388;-87
2023/11/07 05:42:56;;;;;;;6.10;3.30;;;;;;;7.96;81.54;98228.48;108897;1260;72837;-87
2023/11/07 05:45:25;;;;;;;12.00;3.30;;;;;;;7.92;81.67;98234.60;108929;1260;58630;-86
2023/11/07 05:47:52;;;;;;;6.20;3.40;;;;;;;7.88;82.39;98241.81;108836;1262;60022;-86
2023/11/07 05:50:25;;;;;;;9.30;4.10;;;;;;;7.86;82.80;98247.31;108922;1262;72577;-87
2023/11/07 05:52:52;;;;;;;7.70;3.90;;;;;;;7.83;82.94;98244.27;108846;1262;73429;-88
2023/11/07 05:55:20;;;;;;;6.70;4.10;;;;;;;7.81;83.11;98256.48;108705;1260;71681;-87
2023/11/07 05:57:48;;;;;;;8.30;4.40;;;;;;;7.80;83.55;98263.31;108597;1261;59035;-87
2023/11/07 06:00:19;;;;;;;7.90;5.00;;;;;;;7.80;83.93;98267.98;108518;1261;59969;-88
2023/11/07 06:02:46;;;;;;;8.40;6.40;;;;;;;7.80;84.03;98270.83;108633;1261;72752;-87
2023/11/07 06:05:14;;;;;;;7.60;5.50;;;;;;;7.80;84.37;98273.84;108634;1267;73813;-88
2023/11/07 06:07:41;;;;;;;8.60;5.40;;;;;;;7.82;84.53;98280.16;108706;1260;72823;-87
2023/11/07 06:10:08;;;;;;;6.30;4.80;;;;;;;7.85;84.71;98285.16;108663;1260;60046;-88
2023/11/07 06:12:36;;;;;;;6.30;4.60;;;;;;;7.87;84.91;98282.85;108637;1262;59079;-87
2023/11/07 06:15:03;;;;;;;5.20;4.10;;;;;;;7.90;84.98;98292.16;108601;1266;73747;-90
2023/11/07 06:17:32;;;;;;;6.00;4.00;;;;;;;7.93;84.88;98288.23;108633;1261;74286;-88
2023/11/07 06:20:06;;;;;;;4.20;3.30;;;;;;;7.96;84.93;98287.52;108558;1261;72650;-93
2023/11/07 06:22:41;;;;;;;5.60;3.90;;;;;;;8.00;85.05;98278.71;108076;1264;60099;-90
2023/11/07 06:25:10;;;;;;;5.30;3.80;;;;;;;8.04;84.92;98279.55;108508;1260;61353;-91
2023/11/07 06:52:51;;;;;;;15.40;10.30;;;;;;;8.56;85.93;98312.80;106911;1274;74328;-92
2023/11/07 06:55:24;;;;;;;6.40;3.80;;;;;;;8.62;86.18;98315.78;107643;1277;62167;-90
2023/11/07 06:57:54;;;;;;;6.30;3.40;;;;;;;8.69;86.35;98315.52;107334;1277;62363;-90
2023/11/07 07:00:30;;;;;;;26.00;14.40;;;;;;;8.77;86.27;98305.73;107332;1276;72902;-94
2023/11/07 07:03:14;;;;;;;22.70;12.80;;;;;;;8.85;86.18;98299.70;107243;1274;71168;-92
2023/11/07 07:05:46;;;;;;;33.00;19.80;;;;;;;8.94;86.31;98308.08;107111;1279;73215;-91
2023/11/07 07:08:14;;;;;;;17.80;9.80;;;;;;;9.01;86.46;98315.98;107184;1274;62344;-90
2023/11/07 07:10:44;;;;;;;6.50;4.20;;;;;;;9.09;86.24;98326.20;107248;1274;61345;-91
2023/11/07 07:13:13;;;;;;;7.50;3.50;;;;;;;9.17;86.07;98329.08;107178;1275;73841;-90
2023/11/07 07:15:52;;;;;;;9.70;5.90;;;;;;;9.24;85.77;98330.27;107110;1275;75289;-89
2023/11/07 07:18:22;;;;;;;12.30;9.50;;;;;;;9.31;85.52;98333.54;107427;1274;72664;-87
2023/11/07 07:20:53;;;;;;;18.90;11.80;;;;;;;9.37;85.36;98338.13;107130;1275;61837;-88
2023/11/07 07:23:29;;;;;;;8.10;6.10;;;;;;;9.44;85.18;98334.86;107531;1274;60186;-89
2023/11/07 07:25:59;;;;;;;19.90;6.80;;;;;;;9.50;84.86;98342.16;107467;1274;72624;-91
2023/11/07 07:28:26;;;;;;;22.20;15.60;;;;;;;9.54;84.94;98351.67;107452;1276;73842;-89
2023/11/07 07:30:54;;;;;;;24.20;9.10;;;;;;;9.58;84.55;98353.92;107788;1274;72313;-89
2023/11/07 07:33:24;;;;;;;20.10;14.30;;;;;;;9.63;84.37;98354.88;107498;1276;61024;-88
2023/11/07 07:35:51;;;;;;;44.90;27.70;;;;;;;9.67;84.86;98358.33;107241;1274;59138;-88
2023/11/07 07:38:19;;;;;;;50.70;33.00;;;;;;;9.69;84.90;98364.09;107164;1274;75057;-88
2023/11/07 07:40:46;;;;;;;20.70;13.20;;;;;;;9.73;84.89;98363.30;107319;1274;73502;-89
2023/11/07 07:43:14;;;;;;;6.80;5.40;;;;;;;9.75;84.56;98362.81;107319;1274;73487;-88
2023/11/07 07:45:45;;;;;;;7.20;5.10;;;;;;;9.78;83.69;98361.23;107293;1276;62018;-88
2023/11/07 07:48:13;;;;;;;3.60;2.50;;;;;;;9.82;82.55;98365.61;107225;1274;60370;-88
2023/11/07 07:50:41;;;;;;;5.90;3.70;;;;;;;9.88;80.37;98367.52;107105;1275;74926;-88
2023/11/07 07:53:10;;;;;;;3.40;2.10;;;;;;;9.96;78.78;98378.63;107234;1276;73083;-88
2023/11/07 07:55:43;;;;;;;2.80;1.40;;;;;;;10.07;78.02;98375.90;107338;1276;71923;-86
2023/11/07 07:58:12;;;;;;;1.90;1.10;;;;;;;10.20;77.35;98364.48;107256;1274;61768;-86
2023/11/07 08:00:40;;;;;;;5.30;4.10;;;;;;;10.31;76.52;98357.33;107541;1274;59322;-86
2023/11/07 08:03:09;;;;;;;2.80;1.80;;;;;;;10.42;75.95;98344.91;107666;1276;74581;-89
2023/11/07 08:05:39;;;;;;;1.50;1.00;;;;;;;10.54;74.76;98347.52;107696;1274;74295;-85
2023/11/07 08:08:09;;;;;;;1.70;1.10;;;;;;;10.66;73.95;98339.87;107456;1274;70552;-87
2023/11/07 08:10:37;;;;;;;1.90;0.70;;;;;;;10.77;72.81;98342.46;107481;1276;62199;-87
2023/11/07 08:13:09;;;;;;;1.10;0.80;;;;;;;10.88;71.36;98342.41;107291;1274;61365;-87
2023/11/07 08:15:37;;;;;;;1.10;1.00;;;;;;;10.99;70.94;98345.92;107124;1274;74716;-88
2023/11/07 08:18:06;;;;;;;4.80;1.90;;;;;;;11.09;70.68;98351.25;107176;1274;74258;-88
2023/11/07 08:20:37;;;;;;;8.80;2.80;;;;;;;11.20;71.26;98359.47;107052;1274;72697;-87
2023/11/07 08:23:05;;;;;;;6.50;3.70;;;;;;;11.29;72.50;98361.69;107528;1274;61928;-88
2023/11/07 08:25:33;;;;;;;12.30;4.40;;;;;;;11.35;73.13;98363.20;107502;1274;60927;-87
2023/11/07 08:28:09;;;;;;;9.90;4.50;;;;;;;11.40;73.79;98362.64;107418;1274;73749;-86
2023/11/07 08:30:37;;;;;;;8.10;4.80;;;;;;;11.45;74.02;98358.34;107213;1273;75170;-89
2023/11/07 08:33:08;;;;;;;6.40;4.20;;;;;;;11.49;73.95;98359.30;107202;1274;72390;-90
2023/11/07 08:35:39;;;;;;;6.10;3.40;;;;;;;11.52;73.45;98369.48;107410;1275;60731;-88
2023/11/07 08:38:06;;;;;;;15.00;4.20;;;;;;;11.55;73.27;98367.11;107223;1274;61016;-88
2023/11/07 08:40:34;;;;;;;5.50;3.70;;;;;;;11.59;73.78;98367.38;107176;1273;74306;-86
2023/11/07 08:43:03;;;;;;;8.40;2.80;;;;;;;11.61;73.71;98360.75;107548;1274;73984;-88
2023/11/07 08:45:34;;;;;;;8.70;3.30;;;;;;;11.63;72.84;98367.23;107343;1274;72550;-87
2023/11/07 08:48:01;;;;;;;4.60;1.80;;;;;;;11.66;72.91;98370.11;107288;1274;60528;-88
2023/11/07 08:50:28;;;;;;;6.40;2.10;;;;;;;11.68;71.46;98368.86;106961;1274;61347;-87
2023/11/07 08:52:57;;;;;;;4.00;1.40;;;;;;;11.73;71.24;98365.77;107485;1274;74654;-87
2023/11/07 08:55:25;;;;;;;3.00;1.30;;;;;;;11.80;70.87;98371.76;107588;1276;73147;-87
2023/11/07 08:57:53;;;;;;;3.10;1.90;;;;;;;11.85;70.70;98368.64;107546;1273;71086;-86
2023/11/07 09:00:26;;;;;;;3.40;2.10;;;;;;;11.91;70.22;98368.02;107852;1273;61931;-88
2023/11/07 09:02:57;;;;;;;3.70;2.70;;;;;;;11.98;69.94;98368.14;107687;1274;59886;-88
2023/11/07 09:05:26;;;;;;;4.50;3.00;;;;;;;12.04;70.18;98364.73;107602;1274;73636;-87
2023/11/07 09:07:54;;;;;;;1.90;1.30;;;;;;;12.12;70.24;98367.73;107232;1276;73379;-86
2023/11/07 09:10:24;;;;;;;2.90;1.10;;;;;;;12.20;70.28;98363.54;107171;1275;73290;-86
2023/11/07 09:12:51;;;;;;;1.10;0.80;;;;;;;12.29;70.02;98364.11;107340;1274;60653;-85
2023/11/07 09:15:19;;;;;;;2.20;0.50;;;;;;;12.38;69.94;98361.84;107342;1274;59465;-88
2023/11/07 09:17:47;;;;;;;0.70;0.50;;;;;;;12.48;69.90;98357.45;107284;1276;74627;-87
2023/11/07 09:20:15;;;;;;;0.80;0.50;;;;;;;12.57;69.71;98355.83;107161;1275;74064;-87
2023/11/07 09:22:42;;;;;;;0.80;0.60;;;;;;;12.66;69.49;98350.47;107233;1275;73850;-86
2023/11/07 09:25:11;;;;;;;1.40;1.00;;;;;;;12.75;69.13;98348.02;107180;1276;62001;-86
2023/11/07 09:27:39;;;;;;;1.30;0.80;;;;;;;12.84;68.73;98350.36;107288;1276;60307;-87
2023/11/07 09:30:09;;;;;;;1.30;1.00;;;;;;;12.92;68.44;98355.41;107349;1275;74325;-86
2023/11/07 09:32:38;;;;;;;2.50;1.40;;;;;;;13.01;68.04;98357.77;107222;1276;74000;-87
2023/11/07 09:35:06;;;;;;;3.80;2.70;;;;;;;13.10;67.46;98362.27;107169;1276;72375;-87
2023/11/07 09:37:39;;;;;;;2.40;1.70;;;;;;;13.18;67.10;98359.64;107298;1276;62988;-87
2023/11/07 09:40:10;;;;;;;3.40;1.30;;;;;;;13.27;66.98;98367.94;107393;1275;61239;-85
2023/11/07 09:42:44;;;;;;;2.00;0.90;;;;;;;13.36;66.98;98362.58;107355;1275;73527;-86
2023/11/07 09:45:16;;;;;;;2.00;0.90;;;;;;;13.47;66.45;98353.98;107298;1276;72992;-87
2023/11/07 09:47:47;;;;;;;3.80;1.80;;;;;;;13.58;66.57;98347.80;107276;1275;73907;-86
2023/11/07 09:50:16;;;;;;;4.30;1.20;;;;;;;13.73;66.63;98345.16;107288;1276;60248;-87
2023/11/07 09:52:45;;;;;;;2.70;1.20;;;;;;;13.88;65.90;98348.94;107234;1276;60504;-88
2023/11/07 09:55:15;;;;;;;2.30;1.00;;;;;;;14.04;65.63;98346.70;107431;1275;74358;-85
2023/11/07 09:57:58;;;;;;;2.20;0.70;;;;;;;14.20;65.21;98343.91;107356;1275;72466;-87
2023/11/07 10:00:43;;;;;;;3.50;1.50;;;;;;;14.36;64.70;98341.47;107276;1276;72568;-86
2023/11/07 10:03:16;;;;;;;2.60;1.50;;;;;;;14.45;64.56;98337.96;107108;1274;60116;-86
2023/11/07 10:05:51;;;;;;;3.30;1.10;;;;;;;14.53;63.92;98340.41;107351;1275;59678;-88
2023/11/07 10:08:26;;;;;;;2.70;1.30;;;;;;;14.57;63.44;98336.20;107191;1276;75864;-88
2023/11/07 10:11:08;;;;;;;3.50;2.00;;;;;;;14.60;63.49;98335.08;107165;1276;73438;-87
2023/11/07 10:13:37;;;;;;;7.50;2.50;;;;;;;14.62;63.42;98331.30;107200;1276;71909;-88
2023/11/07 10:16:08;;;;;;;2.00;1.20;;;;;;;14.63;63.29;98327.58;107183;1276;59867;-87
2023/11/07 10:18:48;;;;;;;2.90;1.70;;;;;;;14.66;63.14;98328.31;107380;1275;61242;-88
2023/11/07 10:21:29;;;;;;;6.70;3.00;;;;;;;14.69;63.15;98328.20;107290;1276;74532;-88
2023/11/07 10:23:57;;;;;;;2.70;1.50;;;;;;;14.74;62.75;98328.08;107504;1275;74123;-87
2023/11/07 10:26:24;;;;;;;3.00;1.90;;;;;;;14.81;62.60;98324.44;107556;1275;72661;-88
2023/11/07 10:29:13;;;;;;;4.40;1.50;;;;;;;14.92;62.70;98317.86;107334;1276;58963;-88
2023/11/07 10:31:58;;;;;;;2.90;1.20;;;;;;;15.10;62.30;98309.58;107452;1276;60171;-86
2023/11/07 10:34:28;;;;;;;2.40;1.30;;;;;;;15.25;61.91;98305.80;107484;1275;73995;-88
2023/11/07 10:36:59;;;;;;;4.50;1.90;;;;;;;15.37;61.38;98299.58;107174;1275;75964;-89
2023/11/07 10:39:26;;;;;;;2.30;1.60;;;;;;;15.45;60.93;98296.57;106982;1277;73504;-87
2023/11/07 10:41:58;;;;;;;1.70;1.20;;;;;;;15.46;60.87;98299.84;106982;1276;60433;-87
2023/11/07 10:44:28;;;;;;;3.30;1.40;;;;;;;15.40;60.19;98303.84;107298;1276;61140;-88
2023/11/07 10:47:00;;;;;;;5.00;1.90;;;;;;;15.29;60.29;98299.40;107483;1276;74735;-85
2023/11/07 10:49:30;;;;;;;3.10;1.80;;;;;;;15.16;60.35;98305.49;107527;1275;74371;-87
2023/11/07 10:52:06;;;;;;;3.30;2.10;;;;;;;15.01;60.89;98301.38;107463;1275;73350;-88
2023/11/07 10:54:33;;;;;;;7.60;4.60;;;;;;;14.90;61.38;98295.92;107476;1276;60440;-88
2023/11/07 10:57:06;;;;;;;7.80;1.80;;;;;;;14.79;61.85;98307.66;107621;1276;59929;-88
2023/11/07 10:59:35;;;;;;;4.30;1.20;;;;;;;14.68;62.24;98307.58;107341;1276;74939;-88
2023/11/07 11:02:02;;;;;;;3.00;1.00;;;;;;;14.57;62.32;98306.64;107251;1276;74393;-88
2023/11/07 11:04:33;;;;;;;3.00;1.80;;;;;;;14.50;62.54;98306.59;107489;1275;72575;-88
2023/11/07 11:07:06;;;;;;;4.40;1.70;;;;;;;14.44;62.93;98304.69;107109;1274;59981;-89
2023/11/07 11:09:34;;;;;;;4.90;2.30;;;;;;;14.40;63.46;98307.75;107100;1274;60549;-88
2023/11/07 11:12:03;;;;;;;4.10;1.50;;;;;;;14.36;63.81;98309.21;107400;1276;75559;-88
2023/11/07 11:14:33;;;;;;;3.40;2.70;;;;;;;14.32;63.82;98308.80;107309;1274;75185;-89
2023/11/07 11:17:07;;;;;;;9.90;6.70;;;;;;;14.30;64.04;98295.16;107529;1274;73646;-88
2023/11/07 11:19:43;;;;;;;4.10;3.30;;;;;;;14.29;64.26;98285.89;107454;1275;60094;-89
2023/11/07 11:22:34;;;;;;;5.70;4.50;;;;;;;14.30;64.49;98285.27;107523;1274;59325;-89
2023/11/07 11:25:40;;;;;;;4.10;3.20;;;;;;;14.31;64.55;98288.88;107845;1274;75041;-89
2023/11/07 11:28:08;;;;;;;3.90;1.70;;;;;;;14.33;64.63;98290.15;107484;1276;74284;-88
2023/11/07 11:30:40;;;;;;;4.50;1.60;;;;;;;14.37;64.58;98285.19;107290;1275;72582;-88
2023/11/07 11:33:08;;;;;;;3.10;1.60;;;;;;;14.49;64.22;98294.79;107163;1276;59833;-87
2023/11/07 11:35:55;;;;;;;5.50;2.00;;;;;;;14.66;63.14;98285.16;107619;1274;59233;-87
2023/11/07 11:38:23;;;;;;;4.20;2.10;;;;;;;14.92;63.13;98277.13;107367;1274;73236;-87
2023/11/07 11:40:59;;;;;;;2.30;1.10;;;;;;;15.15;61.45;98283.89;107169;1274;74093;-87
2023/11/07 11:43:31;;;;;;;2.40;1.10;;;;;;;15.43;60.45;98278.52;107251;1275;72486;-88
2023/11/07 11:46:13;;;;;;;4.40;1.50;;;;;;;15.68;59.59;98275.70;107067;1276;60965;-87
2023/11/07 11:48:49;;;;;;;1.60;1.00;;;;;;;15.95;58.38;98272.65;107316;1274;61641;-88
2023/11/07 11:51:39;;;;;;;3.10;2.00;;;;;;;16.12;57.71;98267.33;107365;1275;74580;-88
2023/11/07 11:54:10;;;;;;;2.90;2.20;;;;;;;16.32;57.01;98261.60;107316;1274;73272;-87
2023/11/07 11:57:00;;;;;;;6.40;1.60;;;;;;;16.48;56.45;98265.65;107354;1273;71750;-88
2023/11/07 11:59:53;;;;;;;3.20;1.90;;;;;;;16.71;55.50;98269.48;107121;1276;60818;-86
2023/11/07 12:02:40;;;;;;;4.50;1.50;;;;;;;16.90;54.98;98261.44;106448;1282;59719;-87
2023/11/07 12:05:17;;;;;;;4.80;1.40;;;;;;;17.03;54.76;98257.72;106775;1275;73465;-86